sensor_id;sensor_type;location;lat;lon;timestamp;P1;durP1;ratioP1;P2;durP2;ratioP2
37341;SDS011;58643;49.052;8.518;2023-08-21T10:46:49;6.53;;;4.22;;
37341;SDS011;58643;49.052;8.518;2023-08-21T10:49:16;6.70;;;4.50;;
37341;SDS011;58643;49.052;8.518;2023-08-21T10:51:42;8.23;;;4.18;;
37341;SDS011;58643;49.052;8.518;2023-08-21T10:54:15;7.20;;;3.90;;
37341;SDS011;58643;49.052;8.518;2023-08-21T10:56:41;6.88;;;3.90;;
37341;SDS011;58643;49.052;8.518;2023-08-21T10:59:07;8.70;;;4.10;;
37341;SDS011;58643;49.052;8.518;2023-08-21T11:01:42;6.75;;;4.10;;
37341;SDS011;58643;49.052;8.518;2023-08-21T11:04:13;8.57;;;4.10;;
37341;SDS011;58643;49.052;8.518;2023-08-21T11:06:39;9.07;;;4.60;;
37341;SDS011;58643;49.052;8.518;2023-08-21T11:09:05;6.07;;;4.30;;
37341;SDS011;58643;49.052;8.518;2023-08-21T11:11:37;9.48;;;4.20;;
37341;SDS011;58643;49.052;8.518;2023-08-21T11:14:03;6.80;;;4.25;;
37341;SDS011;58643;49.052;8.518;2023-08-21T11:16:31;7.03;;;4.28;;
37341;SDS011;58643;49.052;8.518;2023-08-21T11:18:56;5.93;;;4.30;;
37341;SDS011;58643;49.052;8.518;2023-08-21T11:21:22;5.75;;;4.38;;
37341;SDS011;58643;49.052;8.518;2023-08-21T11:23:50;8.13;;;4.13;;
37341;SDS011;58643;49.052;8.518;2023-08-21T11:26:18;8.68;;;4.28;;
37341;SDS011;58643;49.052;8.518;2023-08-21T11:28:46;6.80;;;4.30;;
37341;SDS011;58643;49.052;8.518;2023-08-21T11:31:12;6.75;;;4.43;;
37341;SDS011;58643;49.052;8.518;2023-08-21T11:33:38;6.30;;;3.92;;
37341;SDS011;58643;49.052;8.518;2023-08-21T11:36:04;10.32;;;4.60;;
37341;SDS011;58643;49.052;8.518;2023-08-21T11:38:30;6.00;;;4.40;;
37341;SDS011;58643;49.052;8.518;2023-08-21T11:40:59;9.07;;;4.50;;
37341;SDS011;58643;49.052;8.518;2023-08-21T11:43:40;9.20;;;4.07;;
37341;SDS011;58643;49.052;8.518;2023-08-21T11:46:08;7.30;;;4.28;;
37341;SDS011;58643;49.052;8.518;2023-08-21T11:48:38;5.20;;;4.03;;
37341;SDS011;58643;49.052;8.518;2023-08-21T11:51:06;8.27;;;4.43;;
37341;SDS011;58643;49.052;8.518;2023-08-21T11:53:33;9.27;;;3.90;;
37341;SDS011;58643;49.052;8.518;2023-08-21T11:56:01;5.95;;;4.20;;
37341;SDS011;58643;49.052;8.518;2023-08-21T11:58:28;5.95;;;3.80;;
37341;SDS011;58643;49.052;8.518;2023-08-21T12:00:55;5.88;;;3.92;;
37341;SDS011;58643;49.052;8.518;2023-08-21T12:03:28;5.82;;;3.67;;
37341;SDS011;58643;49.052;8.518;2023-08-21T12:05:54;5.32;;;3.80;;
37341;SDS011;58643;49.052;8.518;2023-08-21T12:08:20;7.45;;;3.92;;
37341;SDS011;58643;49.052;8.518;2023-08-21T12:10:49;7.40;;;4.13;;
37341;SDS011;58643;49.052;8.518;2023-08-21T12:13:15;10.23;;;4.20;;
37341;SDS011;58643;49.052;8.518;2023-08-21T12:15:41;9.98;;;4.43;;
37341;SDS011;58643;49.052;8.518;2023-08-21T12:18:06;7.60;;;4.65;;
37341;SDS011;58643;49.052;8.518;2023-08-21T12:20:32;9.13;;;4.70;;
37341;SDS011;58643;49.052;8.518;2023-08-21T12:22:58;7.00;;;4.97;;
37341;SDS011;58643;49.052;8.518;2023-08-21T12:25:24;5.57;;;4.28;;
37341;SDS011;58643;49.052;8.518;2023-08-21T12:27:50;8.80;;;4.50;;
37341;SDS011;58643;49.052;8.518;2023-08-21T12:30:15;5.72;;;4.07;;
37341;SDS011;58643;49.052;8.518;2023-08-21T12:32:41;7.75;;;4.05;;
37341;SDS011;58643;49.052;8.518;2023-08-21T12:35:06;9.73;;;4.30;;
37341;SDS011;58643;49.052;8.518;2023-08-21T12:37:33;5.82;;;3.88;;
37341;SDS011;58643;49.052;8.518;2023-08-21T12:39:58;4.72;;;3.55;;
37341;SDS011;58643;49.052;8.518;2023-08-21T12:42:24;7.18;;;4.22;;
37341;SDS011;58643;49.052;8.518;2023-08-21T12:44:50;7.75;;;4.15;;
37341;SDS011;58643;49.052;8.518;2023-08-21T12:47:15;7.05;;;4.28;;
37341;SDS011;58643;49.052;8.518;2023-08-21T12:49:41;5.88;;;4.30;;
37341;SDS011;58643;49.052;8.518;2023-08-21T12:52:06;8.68;;;3.90;;
37341;SDS011;58643;49.052;8.518;2023-08-21T12:54:32;6.32;;;3.65;;
37341;SDS011;58643;49.052;8.518;2023-08-21T12:56:57;8.30;;;4.47;;
37341;SDS011;58643;49.052;8.518;2023-08-21T12:59:23;5.20;;;4.13;;
37341;SDS011;58643;49.052;8.518;2023-08-21T13:01:49;7.45;;;4.05;;
37341;SDS011;58643;49.052;8.518;2023-08-21T13:04:14;7.05;;;3.65;;
37341;SDS011;58643;49.052;8.518;2023-08-21T13:06:40;9.93;;;4.20;;
37341;SDS011;58643;49.052;8.518;2023-08-21T13:09:06;7.03;;;3.67;;
37341;SDS011;58643;49.052;8.518;2023-08-21T13:11:32;8.13;;;5.65;;
37341;SDS011;58643;49.052;8.518;2023-08-21T13:13:58;7.45;;;4.47;;
37341;SDS011;58643;49.052;8.518;2023-08-21T13:16:23;6.80;;;3.63;;
37341;SDS011;58643;49.052;8.518;2023-08-21T13:18:49;6.85;;;3.78;;
37341;SDS011;58643;49.052;8.518;2023-08-21T13:21:14;6.05;;;3.47;;
37341;SDS011;58643;49.052;8.518;2023-08-21T13:23:40;4.85;;;3.42;;
37341;SDS011;58643;49.052;8.518;2023-08-21T13:26:05;5.65;;;3.47;;
37341;SDS011;58643;49.052;8.518;2023-08-21T13:28:31;7.03;;;3.58;;
37341;SDS011;58643;49.052;8.518;2023-08-21T13:30:57;5.53;;;3.80;;
37341;SDS011;58643;49.052;8.518;2023-08-21T13:33:23;7.18;;;3.55;;
37341;SDS011;58643;49.052;8.518;2023-08-21T13:35:48;4.00;;;3.53;;
37341;SDS011;58643;49.052;8.518;2023-08-21T13:38:14;6.25;;;3.80;;
37341;SDS011;58643;49.052;8.518;2023-08-21T13:40:41;7.28;;;3.60;;
37341;SDS011;58643;49.052;8.518;2023-08-21T13:43:06;4.45;;;3.50;;
37341;SDS011;58643;49.052;8.518;2023-08-21T13:45:34;7.85;;;4.20;;
37341;SDS011;58643;49.052;8.518;2023-08-21T13:48:00;8.60;;;3.85;;
37341;SDS011;58643;49.052;8.518;2023-08-21T13:50:26;6.32;;;4.18;;
37341;SDS011;58643;49.052;8.518;2023-08-21T13:52:52;5.68;;;3.05;;
37341;SDS011;58643;49.052;8.518;2023-08-21T13:55:17;5.30;;;3.25;;
37341;SDS011;58643;49.052;8.518;2023-08-21T13:57:43;5.72;;;3.53;;
37341;SDS011;58643;49.052;8.518;2023-08-21T14:00:09;5.50;;;3.30;;
37341;SDS011;58643;49.052;8.518;2023-08-21T14:02:39;12.18;;;3.78;;
37341;SDS011;58643;49.052;8.518;2023-08-21T14:05:06;15.07;;;4.50;;
37341;SDS011;58643;49.052;8.518;2023-08-21T14:07:33;8.33;;;3.47;;
37341;SDS011;58643;49.052;8.518;2023-08-21T14:09:59;5.25;;;3.50;;
37341;SDS011;58643;49.052;8.518;2023-08-21T14:12:27;7.28;;;3.50;;
37341;SDS011;58643;49.052;8.518;2023-08-21T14:14:54;4.78;;;3.50;;
37341;SDS011;58643;49.052;8.518;2023-08-21T14:17:19;7.30;;;3.90;;
37341;SDS011;58643;49.052;8.518;2023-08-21T14:19:45;4.43;;;3.40;;
37341;SDS011;58643;49.052;8.518;2023-08-21T14:22:11;5.03;;;3.75;;
37341;SDS011;58643;49.052;8.518;2023-08-21T14:24:37;4.95;;;3.20;;
37341;SDS011;58643;49.052;8.518;2023-08-21T14:27:02;4.47;;;3.53;;
37341;SDS011;58643;49.052;8.518;2023-08-21T14:29:28;4.07;;;3.38;;
37341;SDS011;58643;49.052;8.518;2023-08-21T14:31:54;7.25;;;3.80;;
37341;SDS011;58643;49.052;8.518;2023-08-21T14:34:20;4.82;;;3.13;;
37341;SDS011;58643;49.052;8.518;2023-08-21T14:36:45;4.82;;;3.35;;
37341;SDS011;58643;49.052;8.518;2023-08-21T14:39:12;5.57;;;3.33;;
37341;SDS011;58643;49.052;8.518;2023-08-21T14:41:38;6.60;;;3.33;;
37341;SDS011;58643;49.052;8.518;2023-08-21T14:44:06;5.88;;;3.35;;
37341;SDS011;58643;49.052;8.518;2023-08-21T14:46:32;4.20;;;3.20;;
37341;SDS011;58643;49.052;8.518;2023-08-21T14:48:58;7.25;;;3.20;;
37341;SDS011;58643;49.052;8.518;2023-08-21T14:51:24;3.50;;;3.15;;
37341;SDS011;58643;49.052;8.518;2023-08-21T14:53:49;6.90;;;3.55;;
37341;SDS011;58643;49.052;8.518;2023-08-21T14:56:15;7.32;;;3.40;;
37341;SDS011;58643;49.052;8.518;2023-08-21T14:58:41;5.28;;;3.88;;
37341;SDS011;58643;49.052;8.518;2023-08-21T15:01:08;5.13;;;3.00;;
37341;SDS011;58643;49.052;8.518;2023-08-21T15:03:35;5.03;;;2.70;;
37341;SDS011;58643;49.052;8.518;2023-08-21T15:06:01;4.07;;;3.03;;
37341;SDS011;58643;49.052;8.518;2023-08-21T15:08:27;4.93;;;3.25;;
37341;SDS011;58643;49.052;8.518;2023-08-21T15:10:53;4.03;;;2.72;;
37341;SDS011;58643;49.052;8.518;2023-08-21T15:13:19;7.20;;;3.10;;
37341;SDS011;58643;49.052;8.518;2023-08-21T15:15:44;4.45;;;2.88;;
37341;SDS011;58643;49.052;8.518;2023-08-21T15:18:10;6.72;;;2.50;;
37341;SDS011;58643;49.052;8.518;2023-08-21T15:20:36;3.70;;;2.53;;
37341;SDS011;58643;49.052;8.518;2023-08-21T15:23:01;4.13;;;2.30;;
37341;SDS011;58643;49.052;8.518;2023-08-21T15:25:27;4.35;;;2.95;;
37341;SDS011;58643;49.052;8.518;2023-08-21T15:27:52;3.22;;;2.53;;
37341;SDS011;58643;49.052;8.518;2023-08-21T15:30:18;5.43;;;2.40;;
37341;SDS011;58643;49.052;8.518;2023-08-21T15:32:43;5.60;;;2.83;;
37341;SDS011;58643;49.052;8.518;2023-08-21T15:35:10;12.25;;;3.03;;
37341;SDS011;58643;49.052;8.518;2023-08-21T15:37:36;4.63;;;2.70;;
37341;SDS011;58643;49.052;8.518;2023-08-21T15:40:02;6.70;;;2.40;;
37341;SDS011;58643;49.052;8.518;2023-08-21T15:42:28;7.00;;;2.60;;
37341;SDS011;58643;49.052;8.518;2023-08-21T15:44:53;5.38;;;3.10;;
37341;SDS011;58643;49.052;8.518;2023-08-21T15:47:19;4.72;;;2.72;;
37341;SDS011;58643;49.052;8.518;2023-08-21T15:49:46;4.30;;;2.60;;
37341;SDS011;58643;49.052;8.518;2023-08-21T15:52:12;4.18;;;2.70;;
37341;SDS011;58643;49.052;8.518;2023-08-21T15:54:37;4.10;;;2.72;;
37341;SDS011;58643;49.052;8.518;2023-08-21T15:57:03;7.43;;;2.70;;
37341;SDS011;58643;49.052;8.518;2023-08-21T15:59:33;6.03;;;2.60;;
37341;SDS011;58643;49.052;8.518;2023-08-21T16:01:59;6.18;;;3.40;;
37341;SDS011;58643;49.052;8.518;2023-08-21T16:04:24;9.98;;;2.97;;
37341;SDS011;58643;49.052;8.518;2023-08-21T16:06:50;2.95;;;2.53;;
37341;SDS011;58643;49.052;8.518;2023-08-21T16:09:16;5.90;;;3.00;;
37341;SDS011;58643;49.052;8.518;2023-08-21T16:11:45;3.95;;;2.70;;
37341;SDS011;58643;49.052;8.518;2023-08-21T16:14:11;4.60;;;2.50;;
37341;SDS011;58643;49.052;8.518;2023-08-21T16:16:38;4.85;;;2.33;;
37341;SDS011;58643;49.052;8.518;2023-08-21T16:19:04;3.95;;;2.55;;
37341;SDS011;58643;49.052;8.518;2023-08-21T16:21:30;4.85;;;2.63;;
37341;SDS011;58643;49.052;8.518;2023-08-21T16:23:55;4.10;;;2.50;;
37341;SDS011;58643;49.052;8.518;2023-08-21T16:26:21;3.97;;;2.78;;
37341;SDS011;58643;49.052;8.518;2023-08-21T16:28:46;5.82;;;2.90;;
37341;SDS011;58643;49.052;8.518;2023-08-21T16:31:14;4.55;;;2.50;;
37341;SDS011;58643;49.052;8.518;2023-08-21T16:33:40;6.45;;;2.63;;
37341;SDS011;58643;49.052;8.518;2023-08-21T16:36:07;5.75;;;3.00;;
37341;SDS011;58643;49.052;8.518;2023-08-21T16:38:32;7.57;;;3.13;;
37341;SDS011;58643;49.052;8.518;2023-08-21T16:40:58;3.28;;;2.80;;
37341;SDS011;58643;49.052;8.518;2023-08-21T16:43:24;5.40;;;3.00;;
